createdAt,value
2018-07-19T00:00:08.869Z,5.42
2018-07-19T00:03:33.303Z,5.25
2018-07-19T00:06:57.781Z,5.55
2018-07-19T00:10:22.209Z,5.50
2018-07-19T00:13:46.657Z,5.58
2018-07-19T00:17:11.088Z,5.60
2018-07-19T00:20:35.546Z,5.55
2018-07-19T00:24:00.035Z,5.62
2018-07-19T00:27:24.983Z,6.10
2018-07-19T00:30:49.411Z,5.25
2018-07-19T00:34:13.869Z,6.33
2018-07-19T00:37:38.296Z,6.08
2018-07-19T00:41:02.937Z,6.83
2018-07-19T00:44:27.392Z,6.20
2018-07-19T00:47:51.859Z,5.97
2018-07-19T00:51:16.322Z,6.12
2018-07-19T00:54:40.783Z,5.55
2018-07-19T00:58:05.368Z,6.05
2018-07-19T01:01:29.891Z,6.25
2018-07-19T01:04:54.325Z,5.47
2018-07-19T01:08:18.755Z,6.78
2018-07-19T01:11:43.219Z,6.28
2018-07-19T01:15:07.716Z,6.55
2018-07-19T01:18:32.208Z,6.75
2018-07-19T01:21:56.659Z,6.67
2018-07-19T01:25:21.092Z,6.28
2018-07-19T01:28:45.543Z,6.53
2018-07-19T01:32:10.551Z,6.40
2018-07-19T01:35:34.997Z,6.67
2018-07-19T01:38:59.424Z,6.55
2018-07-19T01:42:36.066Z,6.40
2018-07-19T01:46:00.540Z,7.20
2018-07-19T01:49:24.981Z,6.37
2018-07-19T01:52:49.425Z,7.10
2018-07-19T01:56:13.908Z,6.37
2018-07-19T01:59:38.354Z,7.20
2018-07-19T02:03:02.811Z,6.47
2018-07-19T02:06:27.300Z,6.65
2018-07-19T02:09:51.784Z,6.45
2018-07-19T02:13:16.226Z,7.08
2018-07-19T02:16:40.676Z,6.58
2018-07-19T02:20:05.193Z,6.78
2018-07-19T02:23:29.737Z,6.87
2018-07-19T02:26:54.210Z,6.45
2018-07-19T02:30:18.751Z,7.15
2018-07-19T02:33:43.190Z,7.40
2018-07-19T02:37:07.692Z,8.05
2018-07-19T02:40:32.183Z,7.30
2018-07-19T02:43:56.707Z,7.35
2018-07-19T02:47:21.115Z,6.85
2018-07-19T02:50:45.568Z,7.65
2018-07-19T02:54:10.176Z,8.00
2018-07-19T02:57:34.655Z,7.40
2018-07-19T03:00:59.125Z,8.08
2018-07-19T03:04:23.570Z,7.23
2018-07-19T03:07:48.101Z,6.75
2018-07-19T03:11:12.434Z,7.50
2018-07-19T03:14:36.875Z,8.00
2018-07-19T03:18:01.302Z,7.73
2018-07-19T03:21:25.805Z,7.93
2018-07-19T03:24:50.282Z,7.40
2018-07-19T03:28:14.733Z,7.20
2018-07-19T03:31:39.193Z,7.87
2018-07-19T03:35:03.651Z,7.57
2018-07-19T03:38:28.125Z,8.13
2018-07-19T03:41:52.570Z,7.40
2018-07-19T03:45:17.035Z,6.83
2018-07-19T03:48:41.470Z,7.53
2018-07-19T03:52:06.035Z,7.77
2018-07-19T03:55:30.505Z,7.90
2018-07-19T03:58:55.014Z,7.90
2018-07-19T04:02:19.439Z,9.17
2018-07-19T04:05:43.873Z,8.20
2018-07-19T04:09:08.862Z,7.63
2018-07-19T04:12:33.299Z,8.08
2018-07-19T04:15:57.723Z,8.73
2018-07-19T04:19:22.163Z,8.53
2018-07-19T04:22:46.692Z,8.03
2018-07-19T04:26:11.336Z,7.53
2018-07-19T04:29:35.790Z,7.75
2018-07-19T04:33:00.248Z,7.90
2018-07-19T04:36:24.714Z,8.48
2018-07-19T04:39:49.237Z,8.58
2018-07-19T04:43:13.711Z,8.63
2018-07-19T04:46:38.195Z,7.17
2018-07-19T04:50:02.622Z,8.65
2018-07-19T04:53:27.060Z,7.67
2018-07-19T04:56:51.484Z,8.80
2018-07-19T05:00:15.971Z,8.38
2018-07-19T05:03:40.436Z,7.75
2018-07-19T05:07:04.917Z,7.45
2018-07-19T05:10:29.415Z,7.72
2018-07-19T05:13:53.910Z,7.00
2018-07-19T05:17:18.358Z,7.10
2018-07-19T05:20:42.866Z,7.00
2018-07-19T05:24:07.476Z,6.92
2018-07-19T05:27:31.918Z,7.03
2018-07-19T05:30:56.389Z,7.60
2018-07-19T05:34:20.862Z,7.58
2018-07-19T05:37:45.339Z,7.05
2018-07-19T05:41:09.945Z,6.25
2018-07-19T05:44:34.389Z,6.92
2018-07-19T05:47:58.864Z,6.58
2018-07-19T05:51:23.361Z,5.58
2018-07-19T05:54:47.882Z,6.17
2018-07-19T05:58:12.367Z,6.05
2018-07-19T06:01:36.763Z,6.15
2018-07-19T06:05:01.231Z,7.65
2018-07-19T06:08:25.724Z,6.05
2018-07-19T06:11:50.196Z,5.75
2018-07-19T06:15:14.744Z,6.47
2018-07-19T06:18:39.292Z,6.12
2018-07-19T06:22:03.723Z,6.50
2018-07-19T06:25:28.197Z,7.45
2018-07-19T06:28:52.644Z,6.55
2018-07-19T06:32:17.196Z,6.15
2018-07-19T06:35:41.782Z,7.15
2018-07-19T06:39:08.455Z,6.55
2018-07-19T06:42:32.932Z,6.60
2018-07-19T06:45:57.465Z,6.40
2018-07-19T06:49:21.947Z,6.78
2018-07-19T06:52:46.401Z,7.45
2018-07-19T06:56:10.893Z,7.15
2018-07-19T06:59:35.397Z,7.58
2018-07-19T07:02:59.847Z,6.85
2018-07-19T07:06:24.306Z,6.17
2018-07-19T07:09:48.769Z,6.78
2018-07-19T07:13:13.275Z,7.65
2018-07-19T07:16:37.799Z,7.78
2018-07-19T07:20:02.255Z,6.45
2018-07-19T07:23:26.739Z,6.20
2018-07-19T07:26:51.210Z,6.12
2018-07-19T07:30:15.742Z,6.75
2018-07-19T07:33:40.240Z,5.72
2018-07-19T07:37:04.687Z,6.40
2018-07-19T07:40:29.180Z,7.62
2018-07-19T07:43:53.702Z,8.63
2018-07-19T07:47:18.229Z,8.33
2018-07-19T07:50:42.761Z,8.00
2018-07-19T07:54:07.230Z,7.87
2018-07-19T07:57:31.684Z,7.80
2018-07-19T08:00:56.164Z,8.13
2018-07-19T08:04:20.654Z,7.72
2018-07-19T08:07:45.180Z,7.92
2018-07-19T08:11:09.676Z,6.97
2018-07-19T08:14:34.243Z,6.72
2018-07-19T08:17:58.720Z,7.70
2018-07-19T08:21:23.171Z,7.25
2018-07-19T08:24:47.628Z,6.95
2018-07-19T08:28:12.116Z,6.22
2018-07-19T08:31:36.581Z,6.85
2018-07-19T08:35:01.088Z,7.20
2018-07-19T08:38:25.585Z,7.00
2018-07-19T08:41:50.052Z,7.47
2018-07-19T08:45:14.506Z,6.90
2018-07-19T08:48:38.948Z,7.33
2018-07-19T08:52:03.548Z,7.17
2018-07-19T08:55:27.998Z,7.40
2018-07-19T08:58:52.499Z,6.12
2018-07-19T09:02:17.085Z,6.08
2018-07-19T09:05:41.519Z,6.90
2018-07-19T09:09:09.094Z,6.65
2018-07-19T09:12:33.514Z,6.50
2018-07-19T09:15:57.974Z,6.62
2018-07-19T09:19:22.502Z,7.85
2018-07-19T09:22:46.961Z,6.12
2018-07-19T09:26:11.558Z,6.03
2018-07-19T09:29:35.995Z,5.85
2018-07-19T09:33:00.489Z,5.83
2018-07-19T09:36:24.969Z,4.80
2018-07-19T09:39:49.388Z,6.80
2018-07-19T09:43:13.871Z,5.80
2018-07-19T09:46:38.325Z,5.58
2018-07-19T09:50:02.792Z,5.33
2018-07-19T09:53:27.215Z,4.83
2018-07-19T09:56:51.667Z,5.53
2018-07-19T10:00:20.189Z,5.62
2018-07-19T10:03:44.356Z,4.90
2018-07-19T10:07:08.831Z,5.37
2018-07-19T10:10:33.273Z,5.05
2018-07-19T10:13:57.698Z,5.12
2018-07-19T10:17:22.215Z,4.95
2018-07-19T10:20:46.682Z,4.42
2018-07-19T10:24:11.195Z,5.33
2018-07-19T10:27:35.619Z,6.08
2018-07-19T10:31:00.092Z,5.70
2018-07-19T10:34:24.589Z,4.87
2018-07-19T10:37:49.016Z,5.42
2018-07-19T10:41:13.474Z,6.95
2018-07-19T10:44:37.922Z,6.12
2018-07-19T10:48:02.459Z,5.25
2018-07-19T10:51:26.911Z,5.25
2018-07-19T10:54:51.330Z,5.92
2018-07-19T10:58:15.767Z,6.12
2018-07-19T11:01:40.221Z,6.55
2018-07-19T11:05:05.092Z,5.58
2018-07-19T11:08:29.571Z,5.67
2018-07-19T11:11:54.043Z,5.50
2018-07-19T11:15:18.507Z,5.60
2018-07-19T11:18:42.989Z,6.70
2018-07-19T11:22:07.525Z,6.03
2018-07-19T11:25:31.988Z,5.37
2018-07-19T11:28:56.425Z,5.30
2018-07-19T11:32:20.863Z,5.92
2018-07-19T11:35:45.330Z,5.62
2018-07-19T11:39:10.153Z,5.90
2018-07-19T11:42:34.594Z,5.12
2018-07-19T11:45:59.027Z,5.17
2018-07-19T11:49:23.625Z,5.58
2018-07-19T11:52:48.053Z,5.47
2018-07-19T11:56:12.541Z,5.22
2018-07-19T11:59:36.962Z,5.58
2018-07-19T12:03:01.449Z,5.28
2018-07-19T12:06:25.903Z,5.78
2018-07-19T12:09:50.361Z,6.28
2018-07-19T12:13:14.799Z,5.47
2018-07-19T12:16:39.245Z,5.62
2018-07-19T12:20:03.700Z,5.33
2018-07-19T12:23:28.130Z,5.20
2018-07-19T12:26:52.873Z,6.03
2018-07-19T12:30:17.277Z,6.53
2018-07-19T12:33:41.704Z,5.85
2018-07-19T12:37:06.140Z,7.12
2018-07-19T12:40:30.703Z,6.12
2018-07-19T12:43:55.149Z,6.08
2018-07-19T12:47:19.591Z,6.17
2018-07-19T12:50:44.049Z,7.37
2018-07-19T12:54:08.539Z,5.80
2018-07-19T12:57:32.985Z,7.05
2018-07-19T13:00:57.424Z,5.72
2018-07-19T13:04:21.846Z,6.10
2018-07-19T13:07:46.287Z,6.45
2018-07-19T13:11:10.826Z,5.70
2018-07-19T13:14:41.955Z,6.62
2018-07-19T13:18:06.395Z,6.22
2018-07-19T13:21:30.900Z,6.30
2018-07-19T13:24:55.340Z,6.70
2018-07-19T13:28:19.867Z,6.30
2018-07-19T13:31:44.338Z,6.03
2018-07-19T13:35:08.792Z,5.80
2018-07-19T13:38:33.212Z,6.22
2018-07-19T13:41:57.664Z,5.50
2018-07-19T13:45:22.115Z,6.03
2018-07-19T13:48:46.566Z,7.00
2018-07-19T13:52:11.096Z,7.75
2018-07-19T13:55:35.499Z,6.90
2018-07-19T13:58:59.982Z,5.92
2018-07-19T14:02:24.497Z,5.92
2018-07-19T14:05:48.939Z,6.50
2018-07-19T14:09:15.403Z,6.95
2018-07-19T14:12:39.852Z,5.65
2018-07-19T14:16:04.361Z,6.30
2018-07-19T14:19:28.816Z,6.25
2018-07-19T14:22:53.263Z,6.33
2018-07-19T14:26:17.735Z,6.78
2018-07-19T14:29:42.184Z,6.22
2018-07-19T14:33:06.853Z,6.25
2018-07-19T14:36:31.333Z,7.72
2018-07-19T14:39:55.769Z,6.97
2018-07-19T14:43:20.254Z,5.78
2018-07-19T14:46:44.693Z,6.55
2018-07-19T14:50:09.111Z,6.53
2018-07-19T14:53:33.507Z,6.08
2018-07-19T14:56:57.960Z,6.58
2018-07-19T15:00:22.396Z,6.00
2018-07-19T15:03:46.800Z,6.40
2018-07-19T15:07:11.258Z,5.95
2018-07-19T15:10:35.698Z,6.47
2018-07-19T15:14:00.147Z,6.30
2018-07-19T15:17:24.568Z,6.40
2018-07-19T15:20:49.038Z,5.62
2018-07-19T15:24:13.461Z,5.62
2018-07-19T15:27:37.886Z,6.20
2018-07-19T15:31:02.317Z,6.90
2018-07-19T15:34:26.783Z,6.30
2018-07-19T15:37:51.232Z,6.30
2018-07-19T15:41:15.684Z,6.72
2018-07-19T15:44:40.111Z,6.72
2018-07-19T15:48:04.663Z,6.92
2018-07-19T15:51:29.085Z,6.70
2018-07-19T15:54:53.525Z,6.55
2018-07-19T15:58:18.023Z,6.45
2018-07-19T16:01:42.474Z,5.90
2018-07-19T16:05:07.082Z,6.22
2018-07-19T16:08:31.537Z,5.55
2018-07-19T16:11:56.018Z,6.33
2018-07-19T16:15:20.442Z,5.97
2018-07-19T16:18:44.854Z,5.92
2018-07-19T16:22:09.310Z,5.25
2018-07-19T16:25:33.749Z,5.17
2018-07-19T16:28:58.206Z,5.62
2018-07-19T16:32:22.665Z,5.80
2018-07-19T16:35:47.116Z,5.67
2018-07-19T16:39:11.904Z,4.97
2018-07-19T16:42:36.329Z,5.60
2018-07-19T16:46:00.749Z,6.83
2018-07-19T16:49:25.170Z,6.03
2018-07-19T16:52:49.702Z,6.12
2018-07-19T16:56:14.141Z,6.12
2018-07-19T16:59:38.579Z,6.03
2018-07-19T17:03:03.013Z,6.03
2018-07-19T17:06:27.497Z,6.40
2018-07-19T17:09:51.925Z,5.58
2018-07-19T17:13:16.382Z,5.85
2018-07-19T17:16:40.833Z,6.53
2018-07-19T17:20:05.551Z,6.15
2018-07-19T17:23:30.361Z,7.03
2018-07-19T17:26:54.765Z,6.22
2018-07-19T17:30:19.245Z,5.50
2018-07-19T17:33:43.704Z,5.83
2018-07-19T17:37:08.137Z,5.22
2018-07-19T17:40:32.639Z,5.10
2018-07-19T17:43:57.055Z,6.12
2018-07-19T17:47:21.550Z,5.60
2018-07-19T17:50:46.042Z,4.55
2018-07-19T17:54:10.480Z,5.12
2018-07-19T17:57:34.949Z,9.45
2018-07-19T18:00:59.404Z,8.25
2018-07-19T18:04:23.926Z,6.35
2018-07-19T18:07:48.497Z,4.90
2018-07-19T18:11:12.937Z,5.58
2018-07-19T18:14:37.430Z,8.05
2018-07-19T18:18:01.887Z,12.10
2018-07-19T18:21:26.338Z,8.90
2018-07-19T18:24:50.855Z,6.80
2018-07-19T18:28:15.313Z,5.92
2018-07-19T18:31:39.758Z,5.03
2018-07-19T18:35:04.236Z,5.10
2018-07-19T18:38:28.675Z,5.85
2018-07-19T18:41:53.120Z,6.03
2018-07-19T18:45:17.555Z,6.15
2018-07-19T18:48:41.989Z,5.67
2018-07-19T18:52:06.532Z,5.92
2018-07-19T18:55:30.990Z,6.12
2018-07-19T18:58:55.410Z,6.65
2018-07-19T19:02:20.915Z,6.45
2018-07-19T19:05:45.386Z,6.80
2018-07-19T19:09:11.247Z,6.22
2018-07-19T19:12:35.713Z,6.55
2018-07-19T19:16:00.201Z,6.92
2018-07-19T19:19:24.649Z,6.15
2018-07-19T19:22:49.090Z,7.00
2018-07-19T19:26:13.536Z,6.37
2018-07-19T19:29:38.028Z,6.83
2018-07-19T19:33:02.480Z,6.12
2018-07-19T19:36:26.970Z,7.80
2018-07-19T19:39:51.438Z,6.40
2018-07-19T19:43:15.896Z,7.35
2018-07-19T19:46:40.329Z,7.28
2018-07-19T19:50:04.967Z,7.30
2018-07-19T19:53:29.434Z,7.15
2018-07-19T19:56:54.742Z,6.17
2018-07-19T20:00:19.174Z,6.45
2018-07-19T20:03:43.578Z,6.83
2018-07-19T20:07:07.985Z,7.12
2018-07-19T20:10:32.492Z,7.12
2018-07-19T20:13:56.969Z,6.55
2018-07-19T20:17:21.417Z,7.75
2018-07-19T20:20:46.013Z,5.45
2018-07-19T20:24:10.433Z,6.12
2018-07-19T20:27:34.869Z,5.75
2018-07-19T20:30:59.326Z,6.08
2018-07-19T20:34:23.766Z,6.37
2018-07-19T20:37:48.222Z,6.15
2018-07-19T20:41:12.742Z,5.20
2018-07-19T20:44:37.485Z,4.95
2018-07-19T20:48:01.922Z,4.95
2018-07-19T20:51:26.346Z,5.30
2018-07-19T20:54:50.775Z,5.50
2018-07-19T20:58:15.213Z,4.58
2018-07-19T21:01:39.677Z,4.22
2018-07-19T21:05:04.199Z,4.92
2018-07-19T21:08:28.648Z,4.60
2018-07-19T21:11:53.088Z,4.92
2018-07-19T21:15:17.529Z,4.58
2018-07-19T21:18:41.961Z,4.90
2018-07-19T21:22:06.496Z,4.33
2018-07-19T21:25:30.933Z,4.28
2018-07-19T21:28:55.355Z,4.40
2018-07-19T21:32:19.783Z,3.90
2018-07-19T21:35:44.191Z,3.98
2018-07-19T21:39:11.093Z,4.22
2018-07-19T21:42:35.520Z,3.80
2018-07-19T21:45:59.956Z,4.60
2018-07-19T21:49:24.410Z,4.75
2018-07-19T21:52:48.854Z,4.05
2018-07-19T21:56:13.324Z,4.75
2018-07-19T21:59:37.724Z,4.17
2018-07-19T22:03:02.236Z,4.50
2018-07-19T22:06:26.671Z,4.05
2018-07-19T22:09:51.067Z,4.70
2018-07-19T22:13:15.525Z,4.50
2018-07-19T22:16:40.940Z,3.33
2018-07-19T22:20:05.552Z,4.08
2018-07-19T22:23:29.995Z,4.35
2018-07-19T22:26:54.418Z,4.53
2018-07-19T22:30:18.869Z,3.95
2018-07-19T22:33:43.296Z,4.08
2018-07-19T22:37:07.712Z,4.22
2018-07-19T22:40:32.192Z,4.42
2018-07-19T22:43:56.647Z,3.83
2018-07-19T22:47:21.096Z,3.72
2018-07-19T22:50:45.254Z,4.03
2018-07-19T22:54:09.682Z,4.12
2018-07-19T22:57:34.107Z,3.85
2018-07-19T23:00:58.511Z,3.70
2018-07-19T23:04:22.923Z,3.67
2018-07-19T23:07:47.359Z,3.83
2018-07-19T23:11:11.773Z,3.55
2018-07-19T23:14:36.205Z,3.55
2018-07-19T23:18:00.666Z,3.27
2018-07-19T23:21:25.094Z,4.28
2018-07-19T23:24:49.546Z,3.62
2018-07-19T23:28:13.992Z,3.72
2018-07-19T23:31:38.507Z,4.42
2018-07-19T23:35:02.965Z,3.90
2018-07-19T23:39:31.242Z,3.98
2018-07-19T23:43:02.826Z,3.62
2018-07-19T23:46:31.377Z,4.22
2018-07-19T23:49:55.792Z,4.58
2018-07-19T23:53:20.284Z,3.50
2018-07-19T23:56:44.730Z,3.80
